createdAt,value
2018-01-29T00:00:00.439Z,1024.62
2018-01-29T00:01:00.388Z,1024.62
2018-01-29T00:02:00.435Z,1024.67
2018-01-29T00:03:00.393Z,1024.63
2018-01-29T00:04:00.516Z,1024.58
2018-01-29T00:05:00.422Z,1024.60
2018-01-29T00:06:00.397Z,1024.57
2018-01-29T00:07:00.388Z,1024.56
2018-01-29T00:08:00.404Z,1024.59
2018-01-29T00:09:00.366Z,1024.51
2018-01-29T00:10:00.435Z,1024.53
2018-01-29T00:11:00.314Z,1024.52
2018-01-29T00:12:00.325Z,1024.56
2018-01-29T00:13:00.340Z,1024.56
2018-01-29T00:14:00.320Z,1024.54
2018-01-29T00:15:00.290Z,1024.51
2018-01-29T00:16:00.327Z,1024.56
2018-01-29T00:17:00.294Z,1024.48
2018-01-29T00:18:00.292Z,1024.55
2018-01-29T00:19:00.291Z,1024.52
2018-01-29T00:20:00.355Z,1024.57
2018-01-29T00:21:00.283Z,1024.57
2018-01-29T00:22:00.253Z,1024.54
2018-01-29T00:23:00.301Z,1024.61
2018-01-29T00:24:00.308Z,1024.57
2018-01-29T00:25:00.332Z,1024.54
2018-01-29T00:26:00.236Z,1024.54
2018-01-29T00:27:00.216Z,1024.54
2018-01-29T00:28:00.264Z,1024.44
2018-01-29T00:29:00.246Z,1024.47
2018-01-29T00:30:00.292Z,1024.43
2018-01-29T00:31:00.241Z,1024.39
2018-01-29T00:32:00.197Z,1024.46
2018-01-29T00:33:00.230Z,1024.46
2018-01-29T00:34:00.224Z,1024.44
2018-01-29T00:35:00.171Z,1024.50
2018-01-29T00:36:00.221Z,1024.48
2018-01-29T00:37:00.152Z,1024.51
2018-01-29T00:38:00.171Z,1024.50
2018-01-29T00:39:00.142Z,1024.49
2018-01-29T00:40:00.255Z,1024.55
2018-01-29T00:41:00.227Z,1024.54
2018-01-29T00:42:00.215Z,1024.52
2018-01-29T00:43:00.167Z,1024.52
2018-01-29T00:44:00.124Z,1024.51
2018-01-29T00:45:00.179Z,1024.46
2018-01-29T00:46:00.115Z,1024.53
2018-01-29T00:47:00.152Z,1024.46
2018-01-29T00:48:00.131Z,1024.43
2018-01-29T00:49:00.203Z,1024.44
2018-01-29T00:50:00.156Z,1024.44
2018-01-29T00:51:00.082Z,1024.41
2018-01-29T00:52:00.143Z,1024.39
2018-01-29T00:53:00.060Z,1024.35
2018-01-29T00:54:00.057Z,1024.32
2018-01-29T00:55:00.075Z,1024.33
2018-01-29T00:56:00.066Z,1024.32
2018-01-29T00:57:00.142Z,1024.27
2018-01-29T00:58:00.095Z,1024.32
2018-01-29T00:59:00.053Z,1024.32
2018-01-29T01:00:00.089Z,1024.29
2018-01-29T01:01:00.100Z,1024.30
2018-01-29T01:02:00.040Z,1024.33
2018-01-29T01:03:00.017Z,1024.31
2018-01-29T01:03:59.989Z,1024.31
2018-01-29T01:05:00.092Z,1024.28
2018-01-29T01:06:00.015Z,1024.34
2018-01-29T01:06:59.963Z,1024.29
2018-01-29T01:08:00.025Z,1024.35
2018-01-29T01:09:00.100Z,1024.30
2018-01-29T01:09:59.970Z,1024.28
2018-01-29T01:11:00.002Z,1024.27
2018-01-29T01:12:00.056Z,1024.25
2018-01-29T01:13:00.000Z,1024.31
2018-01-29T01:13:59.963Z,1024.31
2018-01-29T01:14:59.950Z,1024.27
2018-01-29T01:15:59.957Z,1024.29
2018-01-29T01:16:59.894Z,1024.30
2018-01-29T01:17:59.913Z,1024.30
2018-01-29T01:18:59.978Z,1024.29
2018-01-29T01:19:59.881Z,1024.26
2018-01-29T01:20:59.984Z,1024.26
2018-01-29T01:21:59.954Z,1024.24
2018-01-29T01:22:59.860Z,1024.19
2018-01-29T01:23:59.933Z,1024.22
2018-01-29T01:24:59.849Z,1024.20
2018-01-29T01:25:59.848Z,1024.21
2018-01-29T01:27:00.033Z,1024.20
2018-01-29T01:27:59.895Z,1024.22
2018-01-29T01:28:59.879Z,1024.25
2018-01-29T01:29:59.899Z,1024.23
2018-01-29T01:30:59.988Z,1024.21
2018-01-29T01:31:59.840Z,1024.22
2018-01-29T01:32:59.801Z,1024.18
2018-01-29T01:33:59.794Z,1024.24
2018-01-29T01:34:59.785Z,1024.19
2018-01-29T01:35:59.779Z,1024.21
2018-01-29T01:36:59.778Z,1024.21
2018-01-29T01:37:59.770Z,1024.19
2018-01-29T01:38:59.762Z,1024.20
2018-01-29T01:39:59.754Z,1024.24
2018-01-29T01:40:59.759Z,1024.20
2018-01-29T01:41:59.747Z,1024.26
2018-01-29T01:42:59.739Z,1024.22
2018-01-29T01:43:59.733Z,1024.18
2018-01-29T01:44:59.726Z,1024.22
2018-01-29T01:45:59.721Z,1024.14
2018-01-29T01:46:59.711Z,1024.18
2018-01-29T01:47:59.710Z,1024.14
2018-01-29T01:48:59.702Z,1024.11
2018-01-29T01:49:59.692Z,1024.15
2018-01-29T01:50:59.699Z,1024.09
2018-01-29T01:51:59.681Z,1024.10
2018-01-29T01:52:59.674Z,1024.15
2018-01-29T01:53:59.663Z,1024.14
2018-01-29T01:54:59.661Z,1024.14
2018-01-29T01:55:59.660Z,1024.14
2018-01-29T01:56:59.649Z,1024.14
2018-01-29T01:57:59.646Z,1024.10
2018-01-29T01:58:59.636Z,1024.09
2018-01-29T01:59:59.626Z,1024.12
2018-01-29T02:00:59.623Z,1024.09
2018-01-29T02:01:59.620Z,1024.09
2018-01-29T02:02:59.608Z,1024.14
2018-01-29T02:03:59.599Z,1024.13
2018-01-29T02:04:59.598Z,1024.12
2018-01-29T02:05:59.590Z,1024.06
2018-01-29T02:06:59.584Z,1024.08
2018-01-29T02:07:59.582Z,1024.08
2018-01-29T02:08:59.622Z,1024.03
2018-01-29T02:09:59.569Z,1023.96
2018-01-29T02:10:59.558Z,1023.93
2018-01-29T02:11:59.556Z,1023.96
2018-01-29T02:12:59.543Z,1023.94
2018-01-29T02:13:59.542Z,1023.91
2018-01-29T02:14:59.537Z,1023.92
2018-01-29T02:15:59.539Z,1023.91
2018-01-29T02:16:59.521Z,1023.91
2018-01-29T02:17:59.514Z,1023.92
2018-01-29T02:18:59.506Z,1023.89
2018-01-29T02:19:59.500Z,1023.87
2018-01-29T02:20:59.495Z,1023.90
2018-01-29T02:21:59.494Z,1023.92
2018-01-29T02:22:59.484Z,1023.92
2018-01-29T02:23:59.478Z,1023.93
2018-01-29T02:24:59.467Z,1023.92
2018-01-29T02:25:59.467Z,1023.88
2018-01-29T02:26:59.462Z,1023.90
2018-01-29T02:27:59.451Z,1023.89
2018-01-29T02:28:59.448Z,1023.87
2018-01-29T02:29:59.440Z,1023.87
2018-01-29T02:30:59.430Z,1023.90
2018-01-29T02:31:59.428Z,1023.88
2018-01-29T02:32:59.422Z,1023.91
2018-01-29T02:33:59.417Z,1023.87
2018-01-29T02:34:59.407Z,1023.88
2018-01-29T02:35:59.400Z,1023.88
2018-01-29T02:36:59.392Z,1023.84
2018-01-29T02:37:59.393Z,1023.83
2018-01-29T02:38:59.381Z,1023.75
2018-01-29T02:39:59.375Z,1023.75
2018-01-29T02:40:59.372Z,1023.74
2018-01-29T02:41:59.362Z,1023.73
2018-01-29T02:42:59.357Z,1023.71
2018-01-29T02:43:59.352Z,1023.74
2018-01-29T02:44:59.348Z,1023.70
2018-01-29T02:45:59.338Z,1023.69
2018-01-29T02:46:59.331Z,1023.70
2018-01-29T02:47:59.325Z,1023.69
2018-01-29T02:49:00.141Z,1023.68
2018-01-29T02:49:59.321Z,1023.67
2018-01-29T02:50:59.305Z,1023.64
2018-01-29T02:51:59.298Z,1023.70
2018-01-29T02:52:59.293Z,1023.70
2018-01-29T02:53:59.288Z,1023.69
2018-01-29T02:54:59.278Z,1023.67
2018-01-29T02:55:59.270Z,1023.66
2018-01-29T02:56:59.274Z,1023.63
2018-01-29T02:57:59.264Z,1023.59
2018-01-29T02:58:59.259Z,1023.60
2018-01-29T02:59:59.249Z,1023.60
2018-01-29T03:00:59.245Z,1023.57
2018-01-29T03:01:59.232Z,1023.56
2018-01-29T03:02:59.228Z,1023.57
2018-01-29T03:03:59.226Z,1023.54
2018-01-29T03:04:59.241Z,1023.54
2018-01-29T03:05:59.209Z,1023.55
2018-01-29T03:06:59.208Z,1023.55
2018-01-29T03:07:59.202Z,1023.57
2018-01-29T03:08:59.194Z,1023.57
2018-01-29T03:09:59.191Z,1023.58
2018-01-29T03:10:59.182Z,1023.49
2018-01-29T03:11:59.176Z,1023.48
2018-01-29T03:12:59.172Z,1023.44
2018-01-29T03:13:59.175Z,1023.39
2018-01-29T03:15:00.145Z,1023.39
2018-01-29T03:15:59.155Z,1023.39
2018-01-29T03:16:59.144Z,1023.36
2018-01-29T03:17:59.147Z,1023.34
2018-01-29T03:18:59.137Z,1023.33
2018-01-29T03:19:59.126Z,1023.31
2018-01-29T03:20:59.127Z,1023.32
2018-01-29T03:21:59.113Z,1023.25
2018-01-29T03:22:59.112Z,1023.23
2018-01-29T03:23:59.105Z,1023.21
2018-01-29T03:24:59.102Z,1023.16
2018-01-29T03:25:59.095Z,1023.15
2018-01-29T03:26:59.083Z,1023.15
2018-01-29T03:27:59.084Z,1023.12
2018-01-29T03:28:59.073Z,1023.10
2018-01-29T03:29:59.069Z,1023.15
2018-01-29T03:30:59.067Z,1023.10
2018-01-29T03:31:59.055Z,1023.11
2018-01-29T03:32:59.053Z,1023.11
2018-01-29T03:33:59.052Z,1023.07
2018-01-29T03:34:59.037Z,1023.08
2018-01-29T03:35:59.034Z,1023.05
2018-01-29T03:36:59.023Z,1023.05
2018-01-29T03:37:59.022Z,1023.01
2018-01-29T03:38:59.019Z,1023.05
2018-01-29T03:39:59.013Z,1023.04
2018-01-29T03:40:59.005Z,1022.99
2018-01-29T03:41:58.995Z,1023.01
2018-01-29T03:42:58.993Z,1022.96
2018-01-29T03:43:58.987Z,1022.97
2018-01-29T03:44:58.980Z,1022.95
2018-01-29T03:45:58.976Z,1022.93
2018-01-29T03:46:58.966Z,1022.89
2018-01-29T03:47:58.965Z,1022.92
2018-01-29T03:48:58.992Z,1022.92
2018-01-29T03:49:58.958Z,1022.90
2018-01-29T03:50:58.948Z,1022.96
2018-01-29T03:51:58.942Z,1022.94
2018-01-29T03:52:58.933Z,1022.98
2018-01-29T03:53:58.929Z,1022.98
2018-01-29T03:54:58.924Z,1022.99
2018-01-29T03:55:58.916Z,1022.90
2018-01-29T03:56:58.909Z,1022.89
2018-01-29T03:57:58.905Z,1022.87
2018-01-29T03:58:58.898Z,1022.85
2018-01-29T03:59:59.659Z,1022.89
2018-01-29T04:00:58.887Z,1022.87
2018-01-29T04:01:58.882Z,1022.81
2018-01-29T04:02:58.874Z,1022.84
2018-01-29T04:03:58.864Z,1022.85
2018-01-29T04:04:58.865Z,1022.85
2018-01-29T04:05:58.857Z,1022.84
2018-01-29T04:06:58.851Z,1022.88
2018-01-29T04:07:58.849Z,1022.85
2018-01-29T04:08:58.838Z,1022.86
2018-01-29T04:09:58.824Z,1022.85
2018-01-29T04:10:58.826Z,1022.81
2018-01-29T04:11:58.819Z,1022.81
2018-01-29T04:12:58.816Z,1022.86
2018-01-29T04:13:58.806Z,1022.87
2018-01-29T04:14:58.802Z,1022.83
2018-01-29T04:15:58.796Z,1022.84
2018-01-29T04:16:58.789Z,1022.83
2018-01-29T04:17:58.790Z,1022.83
2018-01-29T04:18:58.780Z,1022.80
2018-01-29T04:19:58.774Z,1022.79
2018-01-29T04:20:58.768Z,1022.82
2018-01-29T04:21:58.765Z,1022.77
2018-01-29T04:22:58.754Z,1022.81
2018-01-29T04:23:58.746Z,1022.80
2018-01-29T04:24:58.753Z,1022.79
2018-01-29T04:25:58.738Z,1022.77
2018-01-29T04:26:58.736Z,1022.79
2018-01-29T04:27:58.789Z,1022.78
2018-01-29T04:28:58.801Z,1022.74
2018-01-29T04:29:58.713Z,1022.75
2018-01-29T04:30:58.726Z,1022.71
2018-01-29T04:31:58.702Z,1022.71
2018-01-29T04:32:58.696Z,1022.66
2018-01-29T04:33:59.237Z,1022.70
2018-01-29T04:34:58.678Z,1022.67
2018-01-29T04:35:58.677Z,1022.63
2018-01-29T04:36:58.667Z,1022.59
2018-01-29T04:37:58.669Z,1022.60
2018-01-29T04:38:58.693Z,1022.60
2018-01-29T04:39:58.654Z,1022.51
2018-01-29T04:40:58.645Z,1022.53
2018-01-29T04:41:58.642Z,1022.55
2018-01-29T04:42:58.636Z,1022.52
2018-01-29T04:43:58.628Z,1022.47
2018-01-29T04:44:58.625Z,1022.48
2018-01-29T04:45:58.620Z,1022.49
2018-01-29T04:46:58.615Z,1022.53
2018-01-29T04:47:58.605Z,1022.54
2018-01-29T04:48:58.596Z,1022.57
2018-01-29T04:49:58.615Z,1022.53
2018-01-29T04:50:58.587Z,1022.50
2018-01-29T04:51:58.580Z,1022.48
2018-01-29T04:52:58.575Z,1022.52
2018-01-29T04:53:58.570Z,1022.49
2018-01-29T04:54:58.559Z,1022.49
2018-01-29T04:55:58.558Z,1022.49
2018-01-29T04:56:58.551Z,1022.49
2018-01-29T04:57:58.544Z,1022.47
2018-01-29T04:58:58.538Z,1022.46
2018-01-29T04:59:58.548Z,1022.47
2018-01-29T05:00:58.526Z,1022.47
2018-01-29T05:01:58.521Z,1022.48
2018-01-29T05:02:58.524Z,1022.48
2018-01-29T05:03:58.512Z,1022.47
2018-01-29T05:04:58.499Z,1022.46
2018-01-29T05:05:58.496Z,1022.51
2018-01-29T05:06:58.487Z,1022.55
2018-01-29T05:07:58.485Z,1022.52
2018-01-29T05:08:58.476Z,1022.50
2018-01-29T05:09:58.471Z,1022.48
2018-01-29T05:10:58.468Z,1022.57
2018-01-29T05:11:58.461Z,1022.54
2018-01-29T05:12:58.455Z,1022.56
2018-01-29T05:13:58.444Z,1022.54
2018-01-29T05:14:58.442Z,1022.59
2018-01-29T05:15:58.438Z,1022.60
2018-01-29T05:16:58.434Z,1022.57
2018-01-29T05:17:58.426Z,1022.60
2018-01-29T05:18:58.419Z,1022.63
2018-01-29T05:19:58.412Z,1022.57
2018-01-29T05:20:58.408Z,1022.53
2018-01-29T05:21:58.400Z,1022.57
2018-01-29T05:22:58.392Z,1022.58
2018-01-29T05:23:58.390Z,1022.58
2018-01-29T05:24:58.385Z,1022.55
2018-01-29T05:25:58.379Z,1022.56
2018-01-29T05:26:58.369Z,1022.51
2018-01-29T05:27:58.373Z,1022.51
2018-01-29T05:28:58.358Z,1022.48
2018-01-29T05:29:58.351Z,1022.49
2018-01-29T05:30:58.346Z,1022.46
2018-01-29T05:31:58.340Z,1022.53
2018-01-29T05:32:58.335Z,1022.50
2018-01-29T05:33:58.339Z,1022.50
2018-01-29T05:34:58.320Z,1022.51
2018-01-29T05:35:58.318Z,1022.50
2018-01-29T05:36:58.313Z,1022.47
2018-01-29T05:37:58.302Z,1022.52
2018-01-29T05:38:58.297Z,1022.47
2018-01-29T05:39:58.291Z,1022.39
2018-01-29T05:40:58.285Z,1022.43
2018-01-29T05:41:58.286Z,1022.42
2018-01-29T05:42:58.273Z,1022.40
2018-01-29T05:43:58.278Z,1022.44
2018-01-29T05:44:58.264Z,1022.42
2018-01-29T05:45:58.255Z,1022.39
2018-01-29T05:46:58.248Z,1022.45
2018-01-29T05:47:58.261Z,1022.41
2018-01-29T05:48:58.282Z,1022.45
2018-01-29T05:49:58.227Z,1022.42
2018-01-29T05:50:58.230Z,1022.43
2018-01-29T05:51:58.223Z,1022.46
2018-01-29T05:52:58.218Z,1022.42
2018-01-29T05:53:58.208Z,1022.44
2018-01-29T05:54:58.205Z,1022.44
2018-01-29T05:55:58.193Z,1022.45
2018-01-29T05:56:58.185Z,1022.41
2018-01-29T05:57:58.185Z,1022.44
2018-01-29T05:58:58.184Z,1022.42
2018-01-29T05:59:58.167Z,1022.46
2018-01-29T06:00:58.162Z,1022.40
2018-01-29T06:01:58.163Z,1022.39
2018-01-29T06:02:58.190Z,1022.40
2018-01-29T06:03:58.151Z,1022.38
2018-01-29T06:04:58.142Z,1022.38
2018-01-29T06:05:58.139Z,1022.39
2018-01-29T06:06:58.126Z,1022.37
2018-01-29T06:07:58.129Z,1022.36
2018-01-29T06:08:58.121Z,1022.34
2018-01-29T06:09:58.115Z,1022.36
2018-01-29T06:10:58.108Z,1022.35
2018-01-29T06:11:58.105Z,1022.34
2018-01-29T06:12:58.096Z,1022.40
2018-01-29T06:13:58.089Z,1022.41
2018-01-29T06:14:58.089Z,1022.41
2018-01-29T06:15:58.079Z,1022.45
2018-01-29T06:16:58.087Z,1022.46
2018-01-29T06:17:58.067Z,1022.46
2018-01-29T06:18:58.059Z,1022.47
2018-01-29T06:19:58.058Z,1022.43
2018-01-29T06:20:58.049Z,1022.40
2018-01-29T06:21:58.044Z,1022.34
2018-01-29T06:22:58.039Z,1022.35
2018-01-29T06:23:58.027Z,1022.36
2018-01-29T06:24:58.025Z,1022.30
2018-01-29T06:25:58.018Z,1022.39
2018-01-29T06:26:58.003Z,1022.36
2018-01-29T06:27:58.011Z,1022.38
2018-01-29T06:28:58.001Z,1022.34
2018-01-29T06:29:57.998Z,1022.38
2018-01-29T06:30:57.984Z,1022.34
2018-01-29T06:31:57.974Z,1022.41
2018-01-29T06:32:58.697Z,1022.39
2018-01-29T06:33:57.962Z,1022.45
2018-01-29T06:34:57.957Z,1022.41
2018-01-29T06:35:57.954Z,1022.39
2018-01-29T06:36:57.949Z,1022.38
2018-01-29T06:37:57.955Z,1022.35
2018-01-29T06:38:57.952Z,1022.32
2018-01-29T06:39:57.943Z,1022.31
2018-01-29T06:40:57.922Z,1022.28
2018-01-29T06:41:57.916Z,1022.29
2018-01-29T06:42:57.914Z,1022.27
2018-01-29T06:43:57.909Z,1022.20
2018-01-29T06:44:57.907Z,1022.25
2018-01-29T06:45:57.904Z,1022.26
2018-01-29T06:46:57.895Z,1022.24
2018-01-29T06:47:57.884Z,1022.20
2018-01-29T06:48:57.879Z,1022.18
2018-01-29T06:49:57.888Z,1022.14
2018-01-29T06:50:57.866Z,1022.16
2018-01-29T06:51:57.860Z,1022.15
2018-01-29T06:52:58.703Z,1022.13
2018-01-29T06:53:57.847Z,1022.15
2018-01-29T06:54:57.838Z,1022.14
2018-01-29T06:55:57.838Z,1022.16
2018-01-29T06:56:57.832Z,1022.18
2018-01-29T06:57:58.701Z,1022.16
2018-01-29T06:58:57.817Z,1022.12
2018-01-29T06:59:57.812Z,1022.12
2018-01-29T07:00:57.802Z,1022.11
2018-01-29T07:01:57.796Z,1022.17
2018-01-29T07:02:57.792Z,1022.15
2018-01-29T07:03:57.786Z,1022.13
2018-01-29T07:04:57.780Z,1022.14
2018-01-29T07:05:57.779Z,1022.13
2018-01-29T07:06:57.767Z,1022.20
2018-01-29T07:07:57.761Z,1022.13
2018-01-29T07:08:57.752Z,1022.13
2018-01-29T07:09:57.749Z,1022.12
2018-01-29T07:10:57.762Z,1022.12
2018-01-29T07:11:57.736Z,1022.10
2018-01-29T07:12:57.731Z,1022.14
2018-01-29T07:13:57.725Z,1022.11
2018-01-29T07:14:57.718Z,1022.07
2018-01-29T07:15:57.714Z,1022.07
2018-01-29T07:16:57.710Z,1022.03
2018-01-29T07:17:57.690Z,1022.02
2018-01-29T07:18:57.697Z,1022.01
2018-01-29T07:19:57.688Z,1022.02
2018-01-29T07:20:57.687Z,1022.02
2018-01-29T07:21:57.677Z,1022.10
2018-01-29T07:22:57.671Z,1022.07
2018-01-29T07:23:57.668Z,1021.98
2018-01-29T07:24:57.663Z,1022.02
2018-01-29T07:25:57.652Z,1022.05
2018-01-29T07:26:57.647Z,1022.01
2018-01-29T07:27:57.643Z,1022.06
2018-01-29T07:28:57.655Z,1021.95
2018-01-29T07:29:57.627Z,1021.94
2018-01-29T07:30:57.620Z,1022.03
2018-01-29T07:31:57.615Z,1022.03
2018-01-29T07:32:57.606Z,1022.03
2018-01-29T07:33:57.606Z,1022.04
2018-01-29T07:34:57.596Z,1022.04
2018-01-29T07:35:57.592Z,1022.03
2018-01-29T07:36:57.583Z,1022.05
2018-01-29T07:37:57.580Z,1021.99
2018-01-29T07:38:57.576Z,1022.00
2018-01-29T07:39:57.565Z,1022.00
2018-01-29T07:40:57.557Z,1022.02
2018-01-29T07:41:57.604Z,1021.96
2018-01-29T07:42:57.544Z,1021.99
2018-01-29T07:43:57.545Z,1022.01
2018-01-29T07:44:57.538Z,1022.04
2018-01-29T07:45:57.530Z,1022.06
2018-01-29T07:46:57.574Z,1022.07
2018-01-29T07:47:57.518Z,1022.05
2018-01-29T07:48:57.511Z,1022.03
2018-01-29T07:49:57.505Z,1022.03
2018-01-29T07:50:57.498Z,1022.06
2018-01-29T07:51:57.494Z,1022.08
2018-01-29T07:52:57.483Z,1022.06
2018-01-29T07:53:57.481Z,1022.04
2018-01-29T07:54:57.480Z,1021.99
2018-01-29T07:55:57.470Z,1022.04
2018-01-29T07:56:57.466Z,1022.02
2018-01-29T07:57:57.458Z,1022.00
2018-01-29T07:58:57.448Z,1021.98
2018-01-29T07:59:57.444Z,1021.99
2018-01-29T08:00:57.612Z,1022.02
2018-01-29T08:01:57.434Z,1021.98
2018-01-29T08:02:57.428Z,1022.02
2018-01-29T08:03:57.422Z,1021.96
2018-01-29T08:04:57.417Z,1021.98
2018-01-29T08:05:57.408Z,1021.99
2018-01-29T08:06:57.403Z,1022.03
2018-01-29T08:07:57.395Z,1022.00
2018-01-29T08:08:57.388Z,1022.00
2018-01-29T08:09:57.393Z,1021.95
2018-01-29T08:10:57.452Z,1021.98
2018-01-29T08:11:57.402Z,1021.95
2018-01-29T08:12:57.365Z,1021.99
2018-01-29T08:13:57.363Z,1021.99
2018-01-29T08:14:57.357Z,1021.97
2018-01-29T08:15:57.351Z,1021.97
2018-01-29T08:16:57.346Z,1022.00
2018-01-29T08:17:57.339Z,1022.00
2018-01-29T08:18:57.331Z,1021.96
2018-01-29T08:19:57.335Z,1021.97
2018-01-29T08:20:57.322Z,1021.97
2018-01-29T08:21:57.318Z,1021.94
2018-01-29T08:22:57.312Z,1021.92
2018-01-29T08:23:57.303Z,1021.95
2018-01-29T08:24:57.300Z,1021.92
2018-01-29T08:25:57.295Z,1021.94
2018-01-29T08:26:57.294Z,1021.95
2018-01-29T08:27:57.282Z,1021.97
2018-01-29T08:28:57.279Z,1022.00
2018-01-29T08:29:57.268Z,1022.00
2018-01-29T08:30:57.266Z,1021.94
2018-01-29T08:31:57.259Z,1021.94
2018-01-29T08:32:57.258Z,1021.88
2018-01-29T08:33:57.245Z,1021.84
2018-01-29T08:34:57.242Z,1021.84
2018-01-29T08:35:57.239Z,1021.87
2018-01-29T08:36:57.234Z,1021.87
2018-01-29T08:37:57.228Z,1021.86
2018-01-29T08:38:57.231Z,1021.82
2018-01-29T08:39:57.210Z,1021.82
2018-01-29T08:40:57.207Z,1021.81
2018-01-29T08:41:57.204Z,1021.82
2018-01-29T08:42:57.235Z,1021.77
2018-01-29T08:43:57.190Z,1021.71
2018-01-29T08:44:57.183Z,1021.69
2018-01-29T08:45:57.178Z,1021.69
2018-01-29T08:46:57.173Z,1021.73
2018-01-29T08:47:57.167Z,1021.71
2018-01-29T08:48:57.161Z,1021.63
2018-01-29T08:49:57.153Z,1021.61
2018-01-29T08:50:57.149Z,1021.63
2018-01-29T08:51:57.144Z,1021.61
2018-01-29T08:52:57.145Z,1021.68
2018-01-29T08:53:57.175Z,1021.69
2018-01-29T08:54:57.153Z,1021.66
2018-01-29T08:55:57.147Z,1021.66
2018-01-29T08:56:57.117Z,1021.67
2018-01-29T08:57:57.132Z,1021.68
2018-01-29T08:58:57.112Z,1021.65
2018-01-29T08:59:57.100Z,1021.65
2018-01-29T09:00:57.096Z,1021.64
2018-01-29T09:01:57.088Z,1021.64
2018-01-29T09:02:57.081Z,1021.63
2018-01-29T09:03:57.076Z,1021.58
2018-01-29T09:04:57.081Z,1021.53
2018-01-29T09:05:57.064Z,1021.46
2018-01-29T09:06:57.119Z,1021.49
2018-01-29T09:07:57.053Z,1021.48
2018-01-29T09:08:57.053Z,1021.47
2018-01-29T09:09:57.042Z,1021.47
2018-01-29T09:10:57.038Z,1021.50
2018-01-29T09:11:57.032Z,1021.49
2018-01-29T09:12:57.026Z,1021.50
2018-01-29T09:13:57.021Z,1021.46
2018-01-29T09:14:57.010Z,1021.49
2018-01-29T09:15:57.026Z,1021.54
2018-01-29T09:16:57.026Z,1021.49
2018-01-29T09:17:57.004Z,1021.54
2018-01-29T09:18:57.018Z,1021.49
2018-01-29T09:19:56.995Z,1021.46
2018-01-29T09:20:56.970Z,1021.47
2018-01-29T09:21:56.966Z,1021.54
2018-01-29T09:22:56.993Z,1021.52
2018-01-29T09:23:56.957Z,1021.51
2018-01-29T09:24:56.952Z,1021.51
2018-01-29T09:25:56.946Z,1021.52
2018-01-29T09:26:56.931Z,1021.54
2018-01-29T09:27:56.946Z,1021.62
2018-01-29T09:28:56.938Z,1021.51
2018-01-29T09:29:56.944Z,1021.53
2018-01-29T09:30:56.918Z,1021.53
2018-01-29T09:31:56.910Z,1021.53
2018-01-29T09:32:56.910Z,1021.56
2018-01-29T09:33:56.906Z,1021.53
2018-01-29T09:34:56.905Z,1021.52
2018-01-29T09:35:56.892Z,1021.49
2018-01-29T09:36:56.895Z,1021.48
2018-01-29T09:37:56.876Z,1021.46
2018-01-29T09:38:56.872Z,1021.46
2018-01-29T09:39:56.867Z,1021.47
2018-01-29T09:40:56.862Z,1021.43
2018-01-29T09:41:56.855Z,1021.42
2018-01-29T09:42:56.870Z,1021.37
2018-01-29T09:43:56.863Z,1021.39
2018-01-29T09:44:56.868Z,1021.41
2018-01-29T09:45:56.835Z,1021.45
2018-01-29T09:46:56.826Z,1021.52
2018-01-29T09:47:56.819Z,1021.47
2018-01-29T09:48:56.815Z,1021.50
2018-01-29T09:49:56.804Z,1021.45
2018-01-29T09:50:56.811Z,1021.44
2018-01-29T09:51:56.802Z,1021.46
2018-01-29T09:52:56.792Z,1021.47
2018-01-29T09:53:56.783Z,1021.49
2018-01-29T09:54:56.783Z,1021.46
2018-01-29T09:55:56.774Z,1021.55
2018-01-29T09:56:56.765Z,1021.48
2018-01-29T09:57:56.762Z,1021.50
2018-01-29T09:58:56.764Z,1021.54
2018-01-29T09:59:56.753Z,1021.44
2018-01-29T10:00:56.747Z,1021.52
2018-01-29T10:01:56.751Z,1021.46
2018-01-29T10:02:56.749Z,1021.50
2018-01-29T10:03:56.753Z,1021.45
2018-01-29T10:04:56.719Z,1021.45
2018-01-29T10:05:56.710Z,1021.39
2018-01-29T10:06:56.693Z,1021.42
2018-01-29T10:07:56.701Z,1021.45
2018-01-29T10:08:56.689Z,1021.45
2018-01-29T10:09:56.686Z,1021.50
2018-01-29T10:10:56.677Z,1021.37
2018-01-29T10:11:56.668Z,1021.37
2018-01-29T10:12:56.670Z,1021.37
2018-01-29T10:13:56.661Z,1021.34
2018-01-29T10:14:56.652Z,1021.35
2018-01-29T10:15:56.648Z,1021.39
2018-01-29T10:16:56.642Z,1021.34
2018-01-29T10:17:56.639Z,1021.32
2018-01-29T10:18:56.629Z,1021.37
2018-01-29T10:19:56.624Z,1021.34
2018-01-29T10:20:56.618Z,1021.30
2018-01-29T10:21:56.609Z,1021.34
2018-01-29T10:22:56.604Z,1021.35
2018-01-29T10:23:56.602Z,1021.36
2018-01-29T10:24:56.593Z,1021.31
2018-01-29T10:25:56.591Z,1021.33
2018-01-29T10:26:56.580Z,1021.29
2018-01-29T10:27:56.575Z,1021.29
2018-01-29T10:28:56.568Z,1021.27
2018-01-29T10:29:56.565Z,1021.22
2018-01-29T10:30:56.555Z,1021.22
2018-01-29T10:31:56.551Z,1021.25
2018-01-29T10:32:56.542Z,1021.21
2018-01-29T10:33:56.539Z,1021.16
2018-01-29T10:34:56.580Z,1021.12
2018-01-29T10:35:56.526Z,1021.11
2018-01-29T10:36:56.520Z,1021.16
2018-01-29T10:37:56.515Z,1021.13
2018-01-29T10:38:56.508Z,1021.06
2018-01-29T10:39:56.518Z,1021.07
2018-01-29T10:40:56.496Z,1021.00
2018-01-29T10:41:56.492Z,1020.98
2018-01-29T10:42:56.475Z,1021.02
2018-01-29T10:43:56.477Z,1020.97
2018-01-29T10:44:56.470Z,1020.96
2018-01-29T10:45:56.465Z,1020.94
2018-01-29T10:46:56.455Z,1020.93
2018-01-29T10:47:56.454Z,1021.00
2018-01-29T10:48:56.448Z,1020.97
2018-01-29T10:49:56.444Z,1020.90
2018-01-29T10:50:56.435Z,1020.96
2018-01-29T10:51:56.434Z,1020.98
2018-01-29T10:52:56.420Z,1020.98
2018-01-29T10:53:56.418Z,1020.99
2018-01-29T10:54:56.412Z,1020.98
2018-01-29T10:55:56.405Z,1021.01
2018-01-29T10:56:56.395Z,1020.95
2018-01-29T10:57:56.397Z,1020.96
2018-01-29T10:58:56.391Z,1021.03
2018-01-29T10:59:56.381Z,1021.02
2018-01-29T11:00:56.379Z,1020.97
2018-01-29T11:01:56.368Z,1020.95
2018-01-29T11:02:56.360Z,1020.98
2018-01-29T11:03:56.354Z,1020.97
2018-01-29T11:04:56.355Z,1020.97
2018-01-29T11:05:56.348Z,1020.95
2018-01-29T11:06:56.340Z,1020.89
2018-01-29T11:07:56.332Z,1020.92
2018-01-29T11:08:56.332Z,1020.97
2018-01-29T11:09:56.326Z,1020.93
2018-01-29T11:10:56.317Z,1020.92
2018-01-29T11:11:56.315Z,1020.90
2018-01-29T11:12:56.302Z,1020.87
2018-01-29T11:13:56.304Z,1020.85
2018-01-29T11:14:56.331Z,1020.89
2018-01-29T11:15:56.289Z,1020.88
2018-01-29T11:16:56.282Z,1020.79
2018-01-29T11:17:56.275Z,1020.80
2018-01-29T11:18:56.273Z,1020.77
2018-01-29T11:19:56.266Z,1020.76
2018-01-29T11:20:56.258Z,1020.71
2018-01-29T11:21:56.253Z,1020.72
2018-01-29T11:22:56.244Z,1020.73
2018-01-29T11:23:56.239Z,1020.75
2018-01-29T11:24:56.231Z,1020.68
2018-01-29T11:25:56.231Z,1020.67
2018-01-29T11:26:56.229Z,1020.70
2018-01-29T11:27:56.219Z,1020.68
2018-01-29T11:28:56.215Z,1020.69
2018-01-29T11:29:56.205Z,1020.65
2018-01-29T11:30:56.198Z,1020.67
2018-01-29T11:31:56.197Z,1020.71
2018-01-29T11:32:56.188Z,1020.65
2018-01-29T11:33:56.184Z,1020.70
2018-01-29T11:34:56.173Z,1020.66
2018-01-29T11:35:56.174Z,1020.63
2018-01-29T11:36:56.167Z,1020.61
2018-01-29T11:37:56.155Z,1020.58
2018-01-29T11:38:56.155Z,1020.56
2018-01-29T11:39:56.144Z,1020.56
2018-01-29T11:40:56.144Z,1020.51
2018-01-29T11:41:56.137Z,1020.43
2018-01-29T11:42:56.132Z,1020.45
2018-01-29T11:43:56.125Z,1020.45
2018-01-29T11:44:56.116Z,1020.39
2018-01-29T11:45:56.115Z,1020.35
2018-01-29T11:46:56.108Z,1020.30
2018-01-29T11:47:56.108Z,1020.34
2018-01-29T11:48:56.097Z,1020.34
2018-01-29T11:49:56.090Z,1020.29
2018-01-29T11:50:56.086Z,1020.28
2018-01-29T11:51:56.078Z,1020.25
2018-01-29T11:52:56.071Z,1020.27
2018-01-29T11:53:56.069Z,1020.21
2018-01-29T11:54:56.055Z,1020.19
2018-01-29T11:55:56.055Z,1020.22
2018-01-29T11:56:56.054Z,1020.17
2018-01-29T11:57:56.042Z,1020.16
2018-01-29T11:58:56.033Z,1020.09
2018-01-29T11:59:56.032Z,1020.08
2018-01-29T12:00:56.026Z,1020.05
2018-01-29T12:01:56.021Z,1020.00
2018-01-29T12:02:56.013Z,1020.02
2018-01-29T12:03:56.012Z,1020.00
2018-01-29T12:04:55.999Z,1019.95